createdAt,value
2022-07-31T00:00:24.093Z,2.57
2022-07-31T00:02:51.992Z,4.60
2022-07-31T00:05:19.737Z,4.13
2022-07-31T00:07:47.463Z,2.90
2022-07-31T00:10:15.178Z,2.70
2022-07-31T00:12:42.898Z,2.93
2022-07-31T00:15:11.129Z,3.47
2022-07-31T00:17:40.323Z,3.83
2022-07-31T00:20:08.781Z,5.97
2022-07-31T00:22:36.607Z,2.63
2022-07-31T00:27:33.131Z,3.17
2022-07-31T00:30:00.843Z,3.40
2022-07-31T00:32:28.556Z,2.40
2022-07-31T00:34:57.639Z,2.80
2022-07-31T00:37:25.384Z,4.73
2022-07-31T00:39:54.462Z,2.33
2022-07-31T00:42:22.518Z,9.50
2022-07-31T00:44:50.215Z,2.93
2022-07-31T00:47:18.243Z,8.70
2022-07-31T00:49:51.791Z,11.53
2022-07-31T00:52:20.901Z,11.07
2022-07-31T00:54:48.658Z,10.40
2022-07-31T00:57:16.447Z,4.80
2022-07-31T00:59:44.187Z,4.83
2022-07-31T01:02:11.984Z,9.40
2022-07-31T01:04:41.789Z,5.77
2022-07-31T01:07:12.167Z,9.47
2022-07-31T01:09:41.649Z,7.90
2022-07-31T01:12:13.095Z,9.00
2022-07-31T01:14:41.691Z,8.90
2022-07-31T01:17:09.694Z,8.60
2022-07-31T01:19:42.609Z,10.47
2022-07-31T01:22:33.654Z,7.30
2022-07-31T01:25:06.922Z,8.67
2022-07-31T01:27:49.578Z,7.73
2022-07-31T01:30:19.089Z,9.83
2022-07-31T01:32:48.299Z,8.37
2022-07-31T01:35:16.447Z,11.77
2022-07-31T01:37:45.284Z,8.93
2022-07-31T01:40:13.384Z,9.97
2022-07-31T01:42:42.040Z,11.77
2022-07-31T01:45:10.903Z,10.23
2022-07-31T01:47:40.010Z,11.83
2022-07-31T01:50:08.567Z,18.10
2022-07-31T01:52:56.356Z,10.93
2022-07-31T01:55:24.566Z,14.00
2022-07-31T01:57:52.330Z,9.37
2022-07-31T02:00:34.360Z,16.10
2022-07-31T02:03:09.849Z,9.73
2022-07-31T02:05:38.113Z,13.17
2022-07-31T02:08:06.169Z,10.20
2022-07-31T02:10:33.900Z,12.23
2022-07-31T02:13:02.852Z,12.57
2022-07-31T02:15:30.630Z,13.50
2022-07-31T02:17:58.403Z,10.30
2022-07-31T02:20:27.967Z,11.93
2022-07-31T02:22:55.754Z,14.03
2022-07-31T02:25:23.513Z,11.67
2022-07-31T02:27:53.607Z,12.30
2022-07-31T02:30:26.544Z,9.57
2022-07-31T02:32:54.350Z,11.50
2022-07-31T02:35:22.046Z,13.73
2022-07-31T02:37:51.938Z,12.13
2022-07-31T02:40:19.655Z,7.67
2022-07-31T02:42:47.565Z,13.80
2022-07-31T02:45:15.342Z,10.00
2022-07-31T02:47:43.055Z,9.77
2022-07-31T02:50:10.952Z,9.07
2022-07-31T02:52:39.155Z,8.70
2022-07-31T02:55:08.778Z,8.70
2022-07-31T02:57:36.476Z,8.97
2022-07-31T03:00:14.845Z,9.63
2022-07-31T03:02:43.045Z,7.03
2022-07-31T03:05:10.856Z,9.10
2022-07-31T03:07:38.721Z,8.93
2022-07-31T03:10:06.935Z,8.17
2022-07-31T03:12:36.334Z,9.50
2022-07-31T03:15:04.128Z,9.90
2022-07-31T03:17:38.340Z,11.50
2022-07-31T03:20:09.334Z,12.03
2022-07-31T03:22:37.174Z,10.33
2022-07-31T03:25:05.144Z,10.13
2022-07-31T03:27:32.869Z,10.80
2022-07-31T03:30:01.992Z,8.60
2022-07-31T03:32:30.652Z,14.03
2022-07-31T03:34:58.440Z,11.20
2022-07-31T03:37:26.221Z,14.07
2022-07-31T03:39:53.948Z,10.00
2022-07-31T03:42:21.673Z,10.60
2022-07-31T03:44:49.364Z,10.70
2022-07-31T03:47:18.506Z,13.47
2022-07-31T03:49:46.220Z,9.67
2022-07-31T03:52:14.416Z,11.57
2022-07-31T03:54:42.727Z,10.00
2022-07-31T03:57:10.452Z,11.90
2022-07-31T03:59:40.584Z,11.90
2022-07-31T04:02:18.855Z,11.93
2022-07-31T04:04:48.236Z,9.20
2022-07-31T04:07:15.991Z,10.57
2022-07-31T04:09:43.851Z,10.90
2022-07-31T04:12:11.583Z,8.63
2022-07-31T04:14:39.278Z,10.47
2022-07-31T04:17:06.997Z,9.90
2022-07-31T04:19:35.155Z,9.90
2022-07-31T04:22:04.561Z,7.40
2022-07-31T04:24:32.467Z,11.17
2022-07-31T04:27:00.285Z,11.80
2022-07-31T04:29:28.770Z,8.30
2022-07-31T04:31:56.648Z,10.17
2022-07-31T04:34:24.368Z,10.27
2022-07-31T04:36:52.074Z,10.57
2022-07-31T04:39:21.167Z,8.70
2022-07-31T04:41:49.348Z,11.60
2022-07-31T04:44:17.080Z,8.53
2022-07-31T04:46:44.858Z,9.33
2022-07-31T04:49:15.190Z,9.67
2022-07-31T04:51:43.506Z,7.63
2022-07-31T04:54:11.204Z,9.57
2022-07-31T04:56:43.213Z,8.30
2022-07-31T04:59:11.960Z,10.40
2022-07-31T05:01:40.213Z,7.90
2022-07-31T05:04:08.354Z,10.97
2022-07-31T05:06:36.700Z,10.70
2022-07-31T05:09:08.577Z,6.73
2022-07-31T05:11:37.370Z,5.57
2022-07-31T05:14:07.012Z,8.93
2022-07-31T05:16:34.777Z,7.93
2022-07-31T05:19:02.492Z,8.37
2022-07-31T05:21:31.094Z,8.00
2022-07-31T05:23:58.977Z,5.67
2022-07-31T05:26:26.813Z,9.77
2022-07-31T05:28:58.223Z,6.90
2022-07-31T05:31:27.678Z,5.47
2022-07-31T05:33:55.372Z,8.37
2022-07-31T05:36:23.091Z,6.53
2022-07-31T05:38:50.800Z,6.70
2022-07-31T05:41:18.567Z,4.77
2022-07-31T05:43:46.246Z,5.80
2022-07-31T05:46:16.795Z,5.20
2022-07-31T05:48:45.933Z,3.40
2022-07-31T05:51:14.239Z,5.13
2022-07-31T05:53:45.851Z,2.63
2022-07-31T05:56:13.692Z,2.67
2022-07-31T05:58:41.412Z,3.30
2022-07-31T06:01:10.682Z,3.70
2022-07-31T06:03:52.405Z,3.53
2022-07-31T06:06:21.675Z,2.92
2022-07-31T06:08:49.387Z,3.15
2022-07-31T06:11:17.133Z,3.97
2022-07-31T06:13:44.932Z,6.47
2022-07-31T06:16:13.126Z,5.13
2022-07-31T06:18:40.859Z,4.05
2022-07-31T06:21:08.573Z,3.85
2022-07-31T06:23:37.654Z,1.85
2022-07-31T06:26:06.327Z,3.05
2022-07-31T06:28:48.845Z,2.20
2022-07-31T06:31:17.712Z,2.10
2022-07-31T06:33:48.095Z,3.22
2022-07-31T06:36:16.392Z,4.38
2022-07-31T06:38:46.045Z,3.00
2022-07-31T06:41:34.529Z,3.15
2022-07-31T06:44:02.215Z,3.88
2022-07-31T06:46:29.950Z,3.88
2022-07-31T06:48:57.700Z,3.60
2022-07-31T06:51:32.714Z,2.93
2022-07-31T06:54:01.920Z,4.30
2022-07-31T06:56:29.654Z,7.40
2022-07-31T06:58:57.393Z,3.93
2022-07-31T07:01:25.153Z,4.43
2022-07-31T07:03:52.938Z,3.10
2022-07-31T07:06:20.704Z,2.60
2022-07-31T07:08:48.424Z,2.67
2022-07-31T07:11:17.497Z,2.90
2022-07-31T07:13:46.808Z,2.53
2022-07-31T07:16:14.981Z,2.63
2022-07-31T07:18:43.249Z,2.73
2022-07-31T07:21:11.127Z,4.10
2022-07-31T07:23:38.844Z,3.00
2022-07-31T07:26:06.543Z,3.63
2022-07-31T07:28:35.669Z,3.10
2022-07-31T07:31:03.409Z,4.80
2022-07-31T07:33:39.930Z,3.23
2022-07-31T07:36:23.024Z,3.60
2022-07-31T07:38:53.710Z,4.93
2022-07-31T07:41:23.434Z,3.20
2022-07-31T07:43:53.021Z,3.50
2022-07-31T07:46:21.206Z,4.43
2022-07-31T07:48:50.959Z,5.93
2022-07-31T07:51:18.970Z,2.30
2022-07-31T07:53:46.699Z,2.03
2022-07-31T07:56:14.421Z,3.60
2022-07-31T07:58:42.142Z,2.30
2022-07-31T08:01:11.255Z,3.23
2022-07-31T08:03:49.568Z,3.37
2022-07-31T08:06:19.596Z,3.37
2022-07-31T08:08:47.368Z,2.83
2022-07-31T08:11:17.263Z,4.10
2022-07-31T08:13:50.256Z,6.70
2022-07-31T08:16:20.382Z,3.87
2022-07-31T08:18:48.275Z,4.20
2022-07-31T08:21:16.021Z,4.83
2022-07-31T08:23:43.730Z,6.10
2022-07-31T08:26:13.201Z,4.23
2022-07-31T08:28:41.835Z,6.40
2022-07-31T08:31:20.085Z,5.97
2022-07-31T08:33:48.155Z,3.93
2022-07-31T08:36:15.873Z,6.53
2022-07-31T08:38:43.602Z,5.50
2022-07-31T08:41:11.301Z,5.27
2022-07-31T08:43:59.896Z,4.83
2022-07-31T08:46:28.476Z,6.45
2022-07-31T08:48:57.030Z,5.97
2022-07-31T08:51:24.895Z,7.77
2022-07-31T08:53:52.708Z,5.90
2022-07-31T08:56:20.574Z,6.00
2022-07-31T08:58:48.287Z,5.70
2022-07-31T09:01:16.126Z,7.80
2022-07-31T09:03:45.278Z,8.73
2022-07-31T09:06:13.019Z,7.23
2022-07-31T09:08:41.127Z,6.90
2022-07-31T09:11:09.334Z,6.43
2022-07-31T09:13:37.602Z,6.57
2022-07-31T09:16:05.811Z,8.20
2022-07-31T09:18:33.657Z,8.65
2022-07-31T09:21:02.977Z,5.78
2022-07-31T09:23:30.703Z,7.78
2022-07-31T09:26:00.010Z,7.43
2022-07-31T09:28:37.125Z,6.22
2022-07-31T09:31:04.895Z,26.83
2022-07-31T09:33:32.797Z,8.00
2022-07-31T09:36:01.391Z,6.30
2022-07-31T09:38:34.347Z,7.18
2022-07-31T09:41:55.425Z,6.35
2022-07-31T09:44:10.156Z,6.75
2022-07-31T09:46:41.743Z,8.00
2022-07-31T09:49:09.561Z,6.68
2022-07-31T09:51:40.847Z,11.18
2022-07-31T09:54:10.864Z,6.55
2022-07-31T09:56:38.723Z,7.10
2022-07-31T09:59:06.807Z,6.97
2022-07-31T10:01:36.482Z,7.00
2022-07-31T10:04:04.511Z,6.95
2022-07-31T10:06:32.800Z,8.63
2022-07-31T10:09:00.532Z,7.78
2022-07-31T10:11:29.643Z,7.18
2022-07-31T10:13:57.929Z,5.53
2022-07-31T10:16:25.747Z,6.77
2022-07-31T10:18:56.665Z,7.60
2022-07-31T10:21:24.673Z,7.37
2022-07-31T10:23:52.830Z,6.57
2022-07-31T10:26:20.925Z,6.95
2022-07-31T10:28:50.847Z,6.43
2022-07-31T10:31:18.574Z,5.03
2022-07-31T10:33:47.662Z,7.07
2022-07-31T10:36:16.847Z,7.15
2022-07-31T10:38:45.307Z,4.80
2022-07-31T10:41:14.002Z,5.35
2022-07-31T10:43:43.168Z,5.70
2022-07-31T10:46:12.312Z,4.05
2022-07-31T10:48:40.197Z,5.00
2022-07-31T10:51:09.638Z,4.70
2022-07-31T10:53:51.251Z,4.63
2022-07-31T10:56:23.030Z,3.90
2022-07-31T10:58:50.808Z,6.95
2022-07-31T11:01:19.973Z,3.78
2022-07-31T11:03:49.580Z,4.35
2022-07-31T11:06:17.780Z,4.05
2022-07-31T11:08:45.745Z,4.82
2022-07-31T11:11:13.453Z,7.78
2022-07-31T11:13:47.702Z,7.03
2022-07-31T11:16:15.441Z,3.78
2022-07-31T11:18:46.543Z,4.20
2022-07-31T11:21:37.046Z,5.10
2022-07-31T11:24:04.160Z,5.10
2022-07-31T11:26:41.532Z,3.72
2022-07-31T11:29:59.395Z,4.38
2022-07-31T11:32:00.324Z,4.78
2022-07-31T11:34:29.422Z,2.83
2022-07-31T11:36:57.124Z,4.15
2022-07-31T11:39:34.968Z,2.88
2022-07-31T11:42:04.849Z,2.63
2022-07-31T11:44:35.466Z,4.60
2022-07-31T11:47:03.446Z,3.28
2022-07-31T11:50:01.018Z,3.28
2022-07-31T11:52:30.798Z,3.47
2022-07-31T11:55:08.775Z,3.58
2022-07-31T11:57:50.722Z,3.92
2022-07-31T12:00:27.091Z,4.07
2022-07-31T12:02:57.438Z,3.20
2022-07-31T12:05:38.854Z,3.55
2022-07-31T12:08:07.210Z,2.95
2022-07-31T12:10:34.930Z,3.72
2022-07-31T12:13:03.094Z,3.03
2022-07-31T12:15:30.777Z,3.33
2022-07-31T12:18:03.068Z,2.22
2022-07-31T12:20:36.510Z,2.78
2022-07-31T12:23:05.089Z,2.63
2022-07-31T12:25:42.698Z,2.58
2022-07-31T12:28:10.708Z,2.75
2022-07-31T12:30:38.753Z,2.35
2022-07-31T12:33:07.359Z,3.10
2022-07-31T12:35:55.636Z,3.10
2022-07-31T12:38:40.773Z,2.80
2022-07-31T12:41:09.604Z,2.78
2022-07-31T12:43:38.647Z,2.40
2022-07-31T12:46:10.816Z,3.40
2022-07-31T12:48:42.118Z,2.95
2022-07-31T12:51:14.819Z,2.28
2022-07-31T12:53:42.528Z,2.72
2022-07-31T12:56:11.996Z,2.55
2022-07-31T12:58:39.792Z,2.72
2022-07-31T13:01:07.563Z,2.42
2022-07-31T13:03:45.298Z,2.05
2022-07-31T13:06:15.264Z,2.58
2022-07-31T13:08:44.064Z,2.15
2022-07-31T13:11:11.825Z,3.00
2022-07-31T13:13:39.530Z,2.58
2022-07-31T13:16:07.287Z,2.42
2022-07-31T13:18:35.764Z,3.83
2022-07-31T13:21:03.472Z,2.45
2022-07-31T13:23:32.659Z,2.13
2022-07-31T13:26:00.455Z,2.47
2022-07-31T13:28:28.168Z,2.25
2022-07-31T13:30:55.934Z,2.75
2022-07-31T13:33:23.656Z,2.00
2022-07-31T13:35:51.370Z,3.17
2022-07-31T13:38:19.087Z,1.80
2022-07-31T13:41:05.503Z,1.98
2022-07-31T13:43:33.230Z,1.98
2022-07-31T13:46:00.941Z,1.88
2022-07-31T13:48:28.692Z,2.38
2022-07-31T13:50:56.436Z,1.95
2022-07-31T13:53:24.106Z,2.10
2022-07-31T13:55:53.982Z,1.80
2022-07-31T13:58:21.677Z,1.75
2022-07-31T14:00:49.451Z,3.65
2022-07-31T14:03:18.482Z,2.25
2022-07-31T14:05:49.141Z,1.80
2022-07-31T14:08:33.216Z,3.08
2022-07-31T14:11:06.334Z,2.13
2022-07-31T14:13:42.741Z,2.42
2022-07-31T14:16:10.464Z,3.38
2022-07-31T14:18:38.227Z,4.90
2022-07-31T14:21:07.293Z,3.28
2022-07-31T14:23:40.115Z,3.80
2022-07-31T14:26:09.944Z,3.58
2022-07-31T14:28:37.659Z,3.53
2022-07-31T14:31:05.370Z,3.15
2022-07-31T14:33:33.089Z,2.65
2022-07-31T14:36:00.813Z,4.50
2022-07-31T14:38:28.551Z,3.97
2022-07-31T14:40:56.301Z,4.93
2022-07-31T14:43:25.420Z,3.90
2022-07-31T14:45:53.128Z,3.57
2022-07-31T14:48:21.996Z,6.03
2022-07-31T14:50:49.724Z,6.60
2022-07-31T14:53:17.399Z,5.10
2022-07-31T14:55:45.262Z,4.70
2022-07-31T14:58:12.984Z,3.40
2022-07-31T15:00:42.107Z,4.47
2022-07-31T15:03:09.816Z,5.17
2022-07-31T15:06:39.551Z,5.70
2022-07-31T15:08:25.226Z,3.07
2022-07-31T15:10:52.925Z,3.83
2022-07-31T15:13:20.651Z,5.10
2022-07-31T15:15:49.723Z,2.63
2022-07-31T15:18:17.432Z,4.83
2022-07-31T15:20:45.148Z,2.90
2022-07-31T15:23:12.907Z,4.93
2022-07-31T15:25:40.589Z,2.70
2022-07-31T15:28:08.308Z,5.30
2022-07-31T15:30:35.996Z,3.40
2022-07-31T15:33:05.173Z,2.87
2022-07-31T15:35:32.849Z,3.63
2022-07-31T15:38:02.237Z,2.50
2022-07-31T15:40:29.962Z,4.30
2022-07-31T15:42:57.717Z,3.53
2022-07-31T15:45:25.401Z,4.50
2022-07-31T15:47:53.103Z,2.60
2022-07-31T15:50:22.203Z,3.80
2022-07-31T15:52:49.978Z,2.47
2022-07-31T15:55:17.912Z,2.40
2022-07-31T15:57:46.004Z,4.93
2022-07-31T16:00:14.348Z,2.37
2022-07-31T16:02:45.420Z,2.83
2022-07-31T16:05:21.479Z,2.27
2022-07-31T16:08:32.407Z,5.57
2022-07-31T16:10:39.055Z,2.00
2022-07-31T16:13:06.793Z,2.83
2022-07-31T16:15:35.049Z,3.27
2022-07-31T16:18:02.793Z,2.80
2022-07-31T16:20:30.555Z,2.77
2022-07-31T16:23:01.453Z,3.07
2022-07-31T16:25:29.527Z,2.17
2022-07-31T16:28:00.063Z,2.90
2022-07-31T16:30:27.977Z,2.97
2022-07-31T16:32:55.850Z,2.97
2022-07-31T16:35:26.171Z,2.60
2022-07-31T16:37:54.186Z,2.63
2022-07-31T16:40:28.608Z,2.60
2022-07-31T16:43:00.854Z,3.07
2022-07-31T16:45:29.049Z,2.53
2022-07-31T16:47:56.761Z,3.50
2022-07-31T16:50:24.704Z,2.33
2022-07-31T16:52:54.795Z,3.00
2022-07-31T16:55:46.174Z,2.83
2022-07-31T16:58:12.267Z,2.27
2022-07-31T17:00:40.169Z,3.37
2022-07-31T17:03:59.343Z,3.57
2022-07-31T17:05:55.636Z,2.53
2022-07-31T17:08:23.314Z,3.13
2022-07-31T17:10:54.603Z,2.60
2022-07-31T17:13:22.570Z,2.37
2022-07-31T17:15:50.236Z,2.40
2022-07-31T17:18:17.987Z,3.07
2022-07-31T17:20:47.171Z,3.87
2022-07-31T17:23:15.768Z,3.87
2022-07-31T17:25:43.588Z,2.40
2022-07-31T17:28:15.343Z,3.20
2022-07-31T17:30:45.013Z,2.93
2022-07-31T17:33:12.772Z,3.53
2022-07-31T17:35:40.489Z,2.60
2022-07-31T17:38:08.201Z,6.30
2022-07-31T17:40:44.243Z,3.07
2022-07-31T17:43:13.506Z,2.43
2022-07-31T17:46:05.209Z,3.80
2022-07-31T17:48:28.996Z,2.13
2022-07-31T17:50:56.891Z,3.93
2022-07-31T17:53:24.604Z,3.70
2022-07-31T17:56:13.192Z,3.50
2022-07-31T17:58:42.375Z,2.70
2022-07-31T18:01:10.094Z,2.77
2022-07-31T18:03:37.914Z,3.40
2022-07-31T18:06:05.699Z,3.90
2022-07-31T18:08:33.433Z,2.37
2022-07-31T18:11:01.180Z,3.00
2022-07-31T18:13:28.859Z,2.17
2022-07-31T18:15:58.665Z,2.73
2022-07-31T18:18:26.420Z,2.30
2022-07-31T18:20:54.154Z,2.90
2022-07-31T18:23:23.070Z,2.47
2022-07-31T18:25:51.599Z,2.20
2022-07-31T18:28:19.318Z,3.10
2022-07-31T18:30:47.001Z,2.93
2022-07-31T18:33:17.498Z,4.53
2022-07-31T18:35:45.199Z,3.20
2022-07-31T18:38:12.930Z,4.70
2022-07-31T18:40:40.663Z,3.10
2022-07-31T18:43:09.140Z,3.10
2022-07-31T18:45:41.584Z,3.17
2022-07-31T18:48:09.510Z,3.03
2022-07-31T18:50:58.463Z,4.33
2022-07-31T18:53:26.347Z,4.20
2022-07-31T18:55:54.080Z,2.57
2022-07-31T18:58:21.811Z,3.07
2022-07-31T19:00:54.574Z,3.50
2022-07-31T19:03:23.585Z,6.83
2022-07-31T19:05:53.070Z,3.60
2022-07-31T19:08:20.924Z,2.70
2022-07-31T19:10:49.465Z,3.10
2022-07-31T19:13:18.858Z,2.70
2022-07-31T19:15:47.256Z,2.60
2022-07-31T19:18:15.335Z,3.40
2022-07-31T19:20:58.795Z,3.83
2022-07-31T19:23:34.338Z,4.57
2022-07-31T19:26:04.439Z,4.40
2022-07-31T19:28:32.471Z,3.03
2022-07-31T19:31:00.209Z,4.53
2022-07-31T19:33:27.949Z,7.40
2022-07-31T19:36:01.221Z,3.60
2022-07-31T19:38:30.278Z,2.43
2022-07-31T19:40:59.820Z,2.97
2022-07-31T19:43:27.512Z,4.50
2022-07-31T19:46:09.314Z,4.53
2022-07-31T19:48:40.707Z,3.70
2022-07-31T19:51:08.566Z,2.97
2022-07-31T19:53:36.296Z,2.60
2022-07-31T19:56:06.510Z,2.73
2022-07-31T19:58:34.779Z,3.60
2022-07-31T20:01:02.789Z,2.43
2022-07-31T20:03:30.643Z,3.10
2022-07-31T20:05:58.433Z,2.80
2022-07-31T20:08:26.270Z,2.50
2022-07-31T20:10:56.879Z,2.40
2022-07-31T20:13:25.954Z,2.30
2022-07-31T20:15:53.690Z,3.63
2022-07-31T20:18:27.213Z,2.73
2022-07-31T20:20:56.913Z,4.63
2022-07-31T20:23:24.894Z,2.50
2022-07-31T20:25:52.623Z,3.03
2022-07-31T20:28:20.331Z,2.30
2022-07-31T20:30:49.398Z,2.80
2022-07-31T20:33:17.135Z,1.80
2022-07-31T20:35:48.906Z,2.97
2022-07-31T20:38:17.741Z,3.13
2022-07-31T20:40:48.161Z,2.00
2022-07-31T20:43:21.886Z,2.77
2022-07-31T20:45:51.001Z,2.70
2022-07-31T20:48:18.841Z,2.77
2022-07-31T20:50:47.842Z,2.53
2022-07-31T20:53:16.155Z,2.10
2022-07-31T20:55:47.104Z,2.27
2022-07-31T20:58:14.964Z,3.30
2022-07-31T21:00:42.689Z,1.70
2022-07-31T21:03:11.778Z,1.93
2022-07-31T21:05:39.529Z,3.40
2022-07-31T21:08:07.226Z,2.30
2022-07-31T21:10:35.607Z,1.90
2022-07-31T21:13:03.418Z,2.20
2022-07-31T21:15:43.129Z,2.17
2022-07-31T21:18:13.730Z,2.10
2022-07-31T21:20:50.668Z,1.97
2022-07-31T21:23:20.921Z,1.90
2022-07-31T21:25:48.775Z,1.80
2022-07-31T21:28:16.659Z,2.40
2022-07-31T21:30:44.500Z,4.13
2022-07-31T21:33:13.880Z,1.53
2022-07-31T21:35:41.782Z,6.13
2022-07-31T21:38:11.795Z,2.17
2022-07-31T21:40:40.291Z,2.20
2022-07-31T21:43:08.266Z,1.90
2022-07-31T21:45:50.345Z,2.50
2022-07-31T21:48:25.460Z,1.90
2022-07-31T21:50:53.435Z,1.80
2022-07-31T21:53:21.135Z,2.20
2022-07-31T21:55:49.088Z,1.67
2022-07-31T21:58:16.795Z,1.50
2022-07-31T22:00:44.726Z,1.67
2022-07-31T22:03:12.490Z,1.50
2022-07-31T22:05:59.182Z,1.67
2022-07-31T22:08:26.885Z,6.13
2022-07-31T22:10:54.631Z,4.13
2022-07-31T22:13:22.345Z,3.30
2022-07-31T22:15:57.011Z,1.77
2022-07-31T22:18:28.414Z,2.00
2022-07-31T22:20:57.656Z,1.50
2022-07-31T22:23:25.390Z,1.80
2022-07-31T22:25:53.122Z,1.83
2022-07-31T22:28:21.040Z,1.40
2022-07-31T22:30:49.184Z,1.30
2022-07-31T22:33:16.951Z,2.00
2022-07-31T22:35:44.727Z,1.83
2022-07-31T22:38:28.128Z,1.90
2022-07-31T22:40:55.869Z,2.80
2022-07-31T22:44:12.634Z,1.30
2022-07-31T22:46:11.527Z,1.10
2022-07-31T22:48:40.850Z,1.47
2022-07-31T22:51:08.940Z,1.73
2022-07-31T22:53:39.713Z,3.00
2022-07-31T22:56:07.412Z,2.60
2022-07-31T22:58:36.139Z,1.33
2022-07-31T23:01:03.832Z,1.57
2022-07-31T23:03:31.563Z,1.20
2022-07-31T23:06:05.238Z,0.93
2022-07-31T23:08:49.472Z,1.13
2022-07-31T23:11:21.763Z,1.20
2022-07-31T23:13:49.449Z,1.57
2022-07-31T23:16:17.156Z,1.10
2022-07-31T23:18:44.875Z,1.37
2022-07-31T23:21:12.561Z,1.60
2022-07-31T23:23:40.263Z,1.10
2022-07-31T23:26:09.388Z,0.80
2022-07-31T23:28:37.067Z,1.17
2022-07-31T23:31:05.412Z,1.23
2022-07-31T23:33:33.123Z,1.40
2022-07-31T23:36:02.068Z,1.57
2022-07-31T23:38:29.772Z,2.50
2022-07-31T23:40:57.491Z,1.67
2022-07-31T23:43:25.575Z,1.00
2022-07-31T23:45:53.300Z,1.63
2022-07-31T23:48:21.320Z,1.43
2022-07-31T23:50:49.019Z,2.30
2022-07-31T23:53:16.797Z,1.00
2022-07-31T23:55:44.540Z,1.20
2022-07-31T23:58:12.451Z,1.83
